Wiarton Airport
CYVV : now visible

Airfield :











YOU CAN JOIN US ON...

 
LOGIN :

Register | Disclaimer

   EN    FR    IT 

 









Legend :    VFR   Marginal VFR   IFR   Intensive IFR   Very Intensive IFR
Visi :
Ceiling :
>= 8 km
>= 3000ft
5 to 8 km
1000 to 3000 ft
1500m to 5 km
500 to 1000 ft
800 to 1500m
200 to 500 ft
< 800m
< 200 ft
Symbols :   Thunderstorms  Fog  Heavy snow  Heavy precipitations  Wind > 20 kt






- Airport Elevation : 729 ft
- IATA code : YVV


CYVV - Wiarton

CURRENT METAR :
  • 080952Z 35005KT 310V040 15SM SCT011 BKN030 00/M02 A3033 RMK SC3SC3 SLP282

EXPIRED METARs :
  • 080900Z 35007KT 320V050 15SM OVC011 01/M01 A3032 RMK SC8 SLP279
  • 080854Z 01006KT 320V050 15SM OVC011 01/M01 A3032 RMK SC8 SLP278
  • 080800Z 36005KT 320V050 15SM OVC030 01/00 A3032 RMK SC8 SLP278
  • 080700Z 32005KT 300V010 15SM FEW018 OVC030 02/00 A3030 RMK SC2SC6 SLP270

Expired Forecast.
CZYZ FIR / North America



MET'MAP, your aeronautical weather chart ! - Copyright ORBIFLY December 2007 - Disclaimer

ORBIFLY MET'MAP TEAM :

Programming & Development : Alexandra Zaïnal
Original concept : Baudouin d'Aumeries
Technical & hardware support : Manuel Goepfert
Assistance : Marc-Olivier Méhu




SOURCES & CREDITS :

   NOAA       Earth
Advisory